Time;durP1;ratioP1;P1;durP2;ratioP2;P2;SDS_P1;SDS_P2;PMS_P1;PMS_P2;Temp;Humidity;BMP_temperature;BMP_pressure;BME280_temperature;BME280_humidity;BME280_pressure;Samples;Min_cycle;Max_cycle;Signal;HPM_P1;HPM_P2
2023/03/15 00:01:26;;;;;;;;;;;;;;;8.02;44.62;93655.09;4196086;28;20366;-55
2023/03/15 00:03:27;;;;;;;;;;;;;;;8.00;44.91;93658.69;4196382;28;19925;-53
2023/03/15 00:05:30;;;;;;;;;;;;;;;7.98;44.74;93652.03;4197913;28;20351;-52
2023/03/15 00:07:32;;;;;;;;;;;;;;;7.90;45.12;93646.81;4206745;28;19931;-52
2023/03/15 00:09:33;;;;;;;;;;;;;;;7.85;45.34;93643.91;4205299;28;19985;-50
2023/03/15 00:11:35;;;;;;;;;;;;;;;7.85;45.30;93651.72;4213064;28;20382;-55
2023/03/15 00:13:36;;;;;;;;;;;;;;;7.85;45.11;93647.34;4197589;28;19927;-53
2023/03/15 00:15:48;;;;;;;;;;;;;;;7.84;45.11;93657.94;4196055;28;19975;-50
2023/03/15 00:17:50;;;;;;;;;;;;;;;7.84;45.09;93658.72;4196333;28;19967;-51
2023/03/15 00:19:51;;;;;;;;;;;;;;;7.86;45.71;93658.56;4201110;28;19920;-51
2023/03/15 00:21:52;;;;;;;;;;;;;;;7.86;45.65;93650.75;4196672;28;19966;-56
2023/03/15 00:23:54;;;;;;;;;;;;;;;7.83;45.80;93651.91;4206948;28;20394;-51
2023/03/15 00:25:56;;;;;;;;;;;;;;;7.82;45.28;93652.06;4213764;28;19973;-52
2023/03/15 00:27:58;;;;;;;;;;;;;;;7.74;45.39;93645.91;4200762;28;20205;-57
2023/03/15 00:29:59;;;;;;;;;;;;;;;7.70;45.76;93646.38;4205590;28;19963;-55
2023/03/15 00:32:01;;;;;;;;;;;;;;;7.48;46.52;93643.50;4207830;28;20352;-53
2023/03/15 00:34:02;;;;;;;;;;;;;;;7.43;46.51;93639.78;4211406;28;20027;-55
2023/03/15 00:36:05;;;;;;;;;;;;;;;7.38;46.27;93642.88;4188868;28;19986;-54
2023/03/15 00:38:07;;;;;;;;;;;;;;;7.31;47.33;93637.53;4203105;28;19982;-54
2023/03/15 00:40:09;;;;;;;;;;;;;;;7.35;47.13;93638.78;4201209;28;19964;-53
2023/03/15 00:42:11;;;;;;;;;;;;;;;7.41;47.08;93641.75;4203253;28;20519;-48
2023/03/15 00:44:12;;;;;;;;;;;;;;;7.40;46.72;93638.31;4207392;28;19920;-53
2023/03/15 00:46:14;;;;;;;;;;;;;;;7.42;47.02;93640.75;4205572;28;19928;-50
2023/03/15 00:48:15;;;;;;;;;;;;;;;7.47;46.79;93630.66;4206587;28;19986;-51
2023/03/15 00:50:17;;;;;;;;;;;;;;;7.46;46.79;93631.63;4206279;28;19952;-51
2023/03/15 00:52:20;;;;;;;;;;;;;;;7.43;47.13;93619.75;4216115;28;20286;-53
2023/03/15 00:54:23;;;;;;;;;;;;;;;7.40;46.76;93614.88;4212558;28;19920;-52
2023/03/15 00:56:26;;;;;;;;;;;;;;;7.33;46.60;93606.88;4204574;28;20480;-53
2023/03/15 00:58:27;;;;;;;;;;;;;;;7.32;47.00;93612.28;4225460;28;19959;-54
2023/03/15 01:00:29;;;;;;;;;;;;;;;7.28;46.95;93617.00;4223577;28;20456;-52
2023/03/15 01:02:30;;;;;;;;;;;;;;;7.29;46.99;93615.19;4216154;28;20373;-54
2023/03/15 01:04:32;;;;;;;;;;;;;;;7.30;46.90;93615.03;4218670;28;20072;-55
2023/03/15 01:06:33;;;;;;;;;;;;;;;7.32;47.22;93610.47;4220984;28;19942;-52
2023/03/15 01:08:35;;;;;;;;;;;;;;;7.36;47.22;93603.97;4221691;28;20374;-56
2023/03/15 01:10:36;;;;;;;;;;;;;;;7.42;46.89;93609.47;4212472;28;19955;-53
2023/03/15 01:12:38;;;;;;;;;;;;;;;7.44;47.00;93604.91;4220322;28;19981;-53
2023/03/15 01:14:40;;;;;;;;;;;;;;;7.48;47.08;93599.19;4217431;28;20514;-56
2023/03/15 01:16:41;;;;;;;;;;;;;;;7.46;47.12;93595.13;4218031;28;19962;-56
2023/03/15 01:18:43;;;;;;;;;;;;;;;7.41;47.10;93598.25;4202097;28;20358;-55
2023/03/15 01:20:44;;;;;;;;;;;;;;;7.33;47.06;93588.66;4197492;28;19921;-53
2023/03/15 01:22:46;;;;;;;;;;;;;;;7.23;47.72;93593.25;4198116;28;19966;-53
2023/03/15 01:24:47;;;;;;;;;;;;;;;7.11;47.94;93591.97;4215158;28;19947;-55
2023/03/15 01:26:49;;;;;;;;;;;;;;;6.98;48.51;93585.44;4208299;28;19924;-56
2023/03/15 01:28:50;;;;;;;;;;;;;;;6.95;48.83;93579.78;4205137;28;19927;-55
2023/03/15 01:30:52;;;;;;;;;;;;;;;6.98;48.24;93577.66;4201153;28;19920;-51
2023/03/15 01:32:53;;;;;;;;;;;;;;;7.09;48.30;93580.88;4211909;28;19921;-49
2023/03/15 01:34:55;;;;;;;;;;;;;;;7.17;48.21;93584.28;4198962;28;20369;-53
2023/03/15 01:36:57;;;;;;;;;;;;;;;7.28;47.92;93575.31;4199019;28;19931;-52
2023/03/15 01:38:58;;;;;;;;;;;;;;;7.32;47.82;93573.19;4202284;28;19924;-53
2023/03/15 01:41:00;;;;;;;;;;;;;;;7.19;47.98;93581.53;4205564;28;19920;-54
2023/03/15 01:43:01;;;;;;;;;;;;;;;6.74;48.96;93572.47;4209847;28;19928;-52
2023/03/15 01:45:03;;;;;;;;;;;;;;;6.71;49.46;93573.63;4201492;28;19954;-49
2023/03/15 01:47:04;;;;;;;;;;;;;;;6.82;49.18;93574.22;4216779;28;20022;-54
2023/03/15 01:49:07;;;;;;;;;;;;;;;6.93;49.01;93566.91;4201378;28;19920;-52
2023/03/15 01:51:14;;;;;;;;;;;;;;;6.95;48.56;93564.97;4181775;28;19935;-50
2023/03/15 01:53:16;;;;;;;;;;;;;;;6.53;49.60;93559.94;4206684;28;19920;-53
2023/03/15 01:55:18;;;;;;;;;;;;;;;6.49;49.81;93551.63;4187497;28;20488;-53
2023/03/15 01:57:22;;;;;;;;;;;;;;;6.57;49.78;93561.25;4198453;28;19920;-53
2023/03/15 01:59:26;;;;;;;;;;;;;;;6.36;50.01;93554.72;4219859;28;19920;-51
2023/03/15 02:01:27;;;;;;;;;;;;;;;6.28;50.41;93552.13;4198871;28;19975;-52
2023/03/15 02:03:30;;;;;;;;;;;;;;;6.04;51.43;93550.28;4209713;28;20365;-50
2023/03/15 02:05:33;;;;;;;;;;;;;;;6.10;51.58;93551.44;4203588;28;19969;-51
2023/03/15 02:07:34;;;;;;;;;;;;;;;6.18;51.04;93538.47;4204566;28;19920;-54
2023/03/15 02:09:40;;;;;;;;;;;;;;;6.24;50.79;93534.38;4224032;28;19920;-50
2023/03/15 02:11:42;;;;;;;;;;;;;;;6.43;50.60;93528.91;4227081;28;19927;-54
2023/03/15 02:13:43;;;;;;;;;;;;;;;6.59;50.28;93532.47;4212392;28;19920;-52
2023/03/15 02:15:45;;;;;;;;;;;;;;;6.70;49.71;93537.34;4229345;28;20018;-51
2023/03/15 02:17:47;;;;;;;;;;;;;;;6.79;49.54;93531.13;4229151;28;20293;-51
2023/03/15 02:20:01;;;;;;;;;;;;;;;6.81;48.95;93516.16;4205971;28;20018;-50
2023/03/15 02:22:10;;;;;;;;;;;;;;;6.84;48.93;93513.25;4195675;28;20437;-52
2023/03/15 02:24:31;;;;;;;;;;;;;;;6.75;49.18;93516.81;4201915;28;20366;-52
2023/03/15 02:26:42;;;;;;;;;;;;;;;6.61;49.17;93514.91;4202954;28;19946;-54
2023/03/15 02:28:43;;;;;;;;;;;;;;;6.54;49.94;93520.75;4196542;28;19924;-51
2023/03/15 02:30:45;;;;;;;;;;;;;;;6.55;50.01;93509.34;4214596;28;19945;-55
2023/03/15 02:32:47;;;;;;;;;;;;;;;6.62;49.53;93512.13;4195727;28;19943;-51
2023/03/15 02:34:48;;;;;;;;;;;;;;;6.55;50.05;93511.16;4192911;28;19920;-52
2023/03/15 02:36:51;;;;;;;;;;;;;;;6.44;50.21;93519.28;4189134;28;19920;-52
2023/03/15 02:38:53;;;;;;;;;;;;;;;6.34;50.77;93525.44;4209055;28;19965;-56
2023/03/15 02:40:54;;;;;;;;;;;;;;;6.26;50.96;93522.88;4194756;28;20020;-52
2023/03/15 02:43:16;;;;;;;;;;;;;;;5.86;52.12;93519.19;4190802;28;19924;-56
2023/03/15 02:45:17;;;;;;;;;;;;;;;5.87;52.36;93512.19;4220210;28;19962;-55
2023/03/15 02:47:20;;;;;;;;;;;;;;;6.02;51.99;93510.63;4201541;28;20347;-53
2023/03/15 02:49:23;;;;;;;;;;;;;;;6.03;51.43;93514.88;4195534;28;19936;-52
2023/03/15 02:51:26;;;;;;;;;;;;;;;6.12;51.52;93506.09;4181764;28;20480;-52
2023/03/15 02:53:30;;;;;;;;;;;;;;;6.20;51.41;93501.91;4203440;28;19985;-55
2023/03/15 02:55:32;;;;;;;;;;;;;;;6.06;51.67;93506.75;4230685;28;19970;-48
2023/03/15 02:57:33;;;;;;;;;;;;;;;6.04;51.62;93513.88;4219307;28;19924;-51
2023/03/15 02:59:35;;;;;;;;;;;;;;;5.98;52.20;93509.34;4224862;28;20400;-55
2023/03/15 03:01:36;;;;;;;;;;;;;;;6.10;51.75;93507.25;4225561;28;19963;-53
2023/03/15 03:03:39;;;;;;;;;;;;;;;6.23;51.37;93498.97;4225138;28;20313;-53
2023/03/15 03:05:40;;;;;;;;;;;;;;;6.33;51.29;93502.22;4220916;28;20074;-53
2023/03/15 03:07:42;;;;;;;;;;;;;;;6.46;51.47;93489.53;4229736;28;19919;-54
2023/03/15 03:09:43;;;;;;;;;;;;;;;6.54;51.10;93489.53;4222893;28;19921;-52
2023/03/15 03:11:45;;;;;;;;;;;;;;;6.61;50.77;93486.28;4199157;28;19928;-52
2023/03/15 03:13:46;;;;;;;;;;;;;;;6.64;50.73;93485.94;4196962;28;19920;-51
2023/03/15 03:15:48;;;;;;;;;;;;;;;6.67;50.84;93486.44;4203748;28;20278;-54
2023/03/15 03:17:50;;;;;;;;;;;;;;;6.71;50.52;93481.69;4226925;28;20290;-51
2023/03/15 03:19:52;;;;;;;;;;;;;;;6.80;50.83;93482.47;4202488;28;19920;-55
2023/03/15 03:21:53;;;;;;;;;;;;;;;6.84;50.37;93478.56;4215446;28;20007;-49
2023/03/15 03:23:55;;;;;;;;;;;;;;;6.86;50.19;93477.44;4217696;28;20379;-53
2023/03/15 03:25:56;;;;;;;;;;;;;;;6.83;50.50;93475.16;4230135;28;19919;-53
2023/03/15 03:27:58;;;;;;;;;;;;;;;6.84;50.48;93470.75;4229567;28;19927;-50
2023/03/15 03:29:59;;;;;;;;;;;;;;;6.86;50.19;93468.81;4229132;28;19988;-54
2023/03/15 03:32:01;;;;;;;;;;;;;;;6.93;50.22;93469.78;4229231;28;20389;-52
2023/03/15 03:34:03;;;;;;;;;;;;;;;7.01;50.56;93472.34;4221431;28;19977;-54
2023/03/15 03:36:04;;;;;;;;;;;;;;;7.06;50.36;93466.66;4212499;28;19932;-51
2023/03/15 03:38:06;;;;;;;;;;;;;;;7.10;50.31;93470.56;4210482;28;19926;-52
2023/03/15 03:40:08;;;;;;;;;;;;;;;7.08;50.29;93464.69;4224703;28;19960;-54
2023/03/15 03:42:10;;;;;;;;;;;;;;;7.13;49.98;93462.38;4229045;28;19981;-54
2023/03/15 03:44:11;;;;;;;;;;;;;;;7.04;49.60;93459.00;4222989;28;19927;-53
2023/03/15 03:46:13;;;;;;;;;;;;;;;6.98;50.04;93455.25;4207350;28;20011;-53
2023/03/15 03:48:15;;;;;;;;;;;;;;;6.79;50.69;93466.06;4206310;28;19953;-53
2023/03/15 03:50:16;;;;;;;;;;;;;;;6.78;50.61;93461.84;4208981;28;19920;-52
2023/03/15 03:52:18;;;;;;;;;;;;;;;6.78;51.31;93467.06;4202277;28;19927;-54
2023/03/15 03:54:20;;;;;;;;;;;;;;;6.80;51.14;93457.28;4230052;28;19920;-54
2023/03/15 03:56:21;;;;;;;;;;;;;;;6.76;51.29;93456.00;4229595;28;20019;-55
2023/03/15 03:58:23;;;;;;;;;;;;;;;6.64;51.84;93450.31;4203299;28;19919;-54
2023/03/15 04:00:24;;;;;;;;;;;;;;;6.66;51.63;93448.34;4229520;28;19977;-52
2023/03/15 04:02:26;;;;;;;;;;;;;;;6.73;51.71;93448.50;4229429;28;20005;-49
2023/03/15 04:04:27;;;;;;;;;;;;;;;6.76;51.81;93443.78;4228858;28;19927;-51
2023/03/15 04:06:30;;;;;;;;;;;;;;;6.74;51.15;93443.13;4201482;28;19924;-54
2023/03/15 04:08:31;;;;;;;;;;;;;;;6.71;51.69;93437.44;4221847;28;19959;-54
2023/03/15 04:10:33;;;;;;;;;;;;;;;6.66;51.83;93434.53;4229718;28;20377;-54
2023/03/15 04:12:35;;;;;;;;;;;;;;;6.65;52.15;93440.72;4228901;28;19928;-56
2023/03/15 04:14:36;;;;;;;;;;;;;;;6.69;52.10;93442.00;4229643;28;19926;-54
2023/03/15 04:16:38;;;;;;;;;;;;;;;6.76;51.54;93441.19;4229363;28;19941;-52
2023/03/15 04:18:40;;;;;;;;;;;;;;;6.84;51.50;93436.91;4228705;28;19924;-56
2023/03/15 04:20:45;;;;;;;;;;;;;;;6.89;51.25;93445.88;4201818;28;19926;-50
2023/03/15 04:22:48;;;;;;;;;;;;;;;6.93;51.42;93444.56;4228069;28;20319;-54
2023/03/15 04:24:50;;;;;;;;;;;;;;;6.97;50.89;93442.44;4228995;28;19943;-54
2023/03/15 04:26:56;;;;;;;;;;;;;;;6.97;51.36;93440.63;4228602;28;19967;-51
2023/03/15 04:28:58;;;;;;;;;;;;;;;6.80;51.11;93433.84;4229422;28;20420;-57
2023/03/15 04:30:59;;;;;;;;;;;;;;;6.68;51.31;93432.59;4228646;28;19919;-54
2023/03/15 04:33:02;;;;;;;;;;;;;;;6.45;51.64;93433.25;4229100;28;19919;-54
2023/03/15 04:35:04;;;;;;;;;;;;;;;6.36;52.14;93434.25;4198710;28;20260;-56
2023/03/15 04:37:06;;;;;;;;;;;;;;;6.37;52.45;93430.69;4205754;28;19947;-53
2023/03/15 04:39:08;;;;;;;;;;;;;;;6.46;52.20;93429.69;4208501;28;19946;-53
2023/03/15 04:41:10;;;;;;;;;;;;;;;6.54;51.91;93427.09;4213601;28;20362;-52
2023/03/15 04:43:12;;;;;;;;;;;;;;;6.63;51.58;93427.88;4219416;28;19919;-54
2023/03/15 04:45:13;;;;;;;;;;;;;;;6.68;51.88;93424.78;4201995;28;20003;-55
2023/03/15 04:47:14;;;;;;;;;;;;;;;6.75;51.59;93433.53;4227877;28;20277;-54
2023/03/15 04:49:16;;;;;;;;;;;;;;;6.67;52.05;93430.97;4229136;28;20006;-57
2023/03/15 04:51:18;;;;;;;;;;;;;;;6.40;52.74;93432.16;4208711;28;19982;-54
2023/03/15 04:53:19;;;;;;;;;;;;;;;6.38;52.79;93437.50;4208776;28;19954;-58
2023/03/15 04:55:21;;;;;;;;;;;;;;;6.28;51.77;93429.06;4229190;28;19920;-57
2023/03/15 04:57:23;;;;;;;;;;;;;;;6.24;52.46;93430.34;4220694;28;19969;-57
2023/03/15 04:59:24;;;;;;;;;;;;;;;6.29;52.48;93426.31;4200019;28;19993;-55
2023/03/15 05:01:30;;;;;;;;;;;;;;;6.37;52.57;93430.69;4210315;28;19955;-56
2023/03/15 05:03:31;;;;;;;;;;;;;;;6.44;52.08;93426.44;4227863;28;20300;-58
2023/03/15 05:05:33;;;;;;;;;;;;;;;6.49;52.32;93429.34;4227420;28;19969;-58
2023/03/15 05:07:34;;;;;;;;;;;;;;;6.55;52.05;93423.50;4211856;28;19920;-60
2023/03/15 05:09:37;;;;;;;;;;;;;;;6.66;52.03;93429.34;4200176;28;20005;-60
2023/03/15 05:11:40;;;;;;;;;;;;;;;6.75;51.45;93436.97;4203714;28;19967;-59
2023/03/15 05:13:41;;;;;;;;;;;;;;;6.74;49.99;93435.31;4195866;28;19951;-59
2023/03/15 05:15:43;;;;;;;;;;;;;;;6.73;49.68;93433.72;4199372;28;19927;-56
2023/03/15 05:17:45;;;;;;;;;;;;;;;6.76;50.07;93437.78;4228487;28;19919;-59
2023/03/15 05:19:47;;;;;;;;;;;;;;;6.84;50.09;93435.16;4228420;28;20518;-60
2023/03/15 05:21:49;;;;;;;;;;;;;;;6.87;49.57;93421.78;4227490;28;19919;-57
2023/03/15 05:23:50;;;;;;;;;;;;;;;6.86;49.82;93428.00;4228732;28;19928;-56
2023/03/15 05:25:52;;;;;;;;;;;;;;;6.87;49.82;93426.19;4222684;28;19920;-60
2023/03/15 05:27:54;;;;;;;;;;;;;;;6.88;49.56;93423.44;4202269;28;19920;-59
2023/03/15 05:29:55;;;;;;;;;;;;;;;6.94;49.65;93414.91;4195291;28;20007;-59
2023/03/15 05:31:57;;;;;;;;;;;;;;;7.03;49.86;93415.69;4210462;28;19932;-58
2023/03/15 05:34:03;;;;;;;;;;;;;;;7.13;49.64;93418.91;4214392;28;19982;-60
2023/03/15 05:36:04;;;;;;;;;;;;;;;7.21;49.35;93412.06;4203056;28;20358;-58
2023/03/15 05:38:06;;;;;;;;;;;;;;;7.24;48.40;93412.53;4214226;28;20348;-58
2023/03/15 05:40:08;;;;;;;;;;;;;;;7.29;47.53;93422.44;4214711;28;20392;-60
2023/03/15 05:42:09;;;;;;;;;;;;;;;7.33;47.64;93421.91;4216797;28;19920;-59
2023/03/15 05:44:11;;;;;;;;;;;;;;;7.37;46.81;93423.19;4214135;28;19920;-56
2023/03/15 05:46:12;;;;;;;;;;;;;;;7.39;46.48;93416.03;4218092;28;19959;-60
2023/03/15 05:48:15;;;;;;;;;;;;;;;7.47;45.67;93414.38;4209738;28;20022;-58
2023/03/15 05:50:16;;;;;;;;;;;;;;;7.46;45.57;93403.13;4222530;28;20335;-60
2023/03/15 05:52:18;;;;;;;;;;;;;;;7.48;45.48;93411.56;4216867;28;19983;-58
2023/03/15 05:54:20;;;;;;;;;;;;;;;7.51;44.49;93415.66;4221638;28;20263;-59
2023/03/15 05:56:21;;;;;;;;;;;;;;;7.52;45.28;93405.03;4218700;28;19920;-58
2023/03/15 05:58:23;;;;;;;;;;;;;;;7.53;44.66;93411.09;4198450;28;19983;-57
2023/03/15 06:00:24;;;;;;;;;;;;;;;7.28;44.80;93406.00;4207664;28;19972;-62
2023/03/15 06:02:26;;;;;;;;;;;;;;;7.32;45.35;93412.50;4198006;28;19920;-58
2023/03/15 06:04:27;;;;;;;;;;;;;;;7.38;45.36;93413.63;4198897;28;20368;-59
2023/03/15 06:06:29;;;;;;;;;;;;;;;7.49;45.23;93415.03;4221798;28;19920;-59
2023/03/15 06:08:34;;;;;;;;;;;;;;;7.60;44.97;93404.19;4199892;28;19955;-58
2023/03/15 06:10:36;;;;;;;;;;;;;;;7.65;44.79;93407.09;4201316;28;19985;-60
2023/03/15 06:12:38;;;;;;;;;;;;;;;7.78;45.31;93415.13;4215679;28;20349;-59
2023/03/15 06:14:39;;;;;;;;;;;;;;;7.85;45.04;93414.44;4205580;28;19920;-59
2023/03/15 06:16:41;;;;;;;;;;;;;;;7.94;44.76;93406.41;4207433;28;20354;-59
2023/03/15 06:18:42;;;;;;;;;;;;;;;8.05;44.95;93410.41;4182654;28;19948;-58
2023/03/15 06:20:44;;;;;;;;;;;;;;;8.15;44.72;93410.13;4213719;28;19919;-60
2023/03/15 06:22:45;;;;;;;;;;;;;;;8.10;44.50;93415.09;4215824;28;20374;-61
2023/03/15 06:24:47;;;;;;;;;;;;;;;8.10;44.64;93423.72;4207185;28;19983;-61
2023/03/15 06:26:48;;;;;;;;;;;;;;;8.13;44.37;93430.38;4214125;28;19920;-59
2023/03/15 06:28:50;;;;;;;;;;;;;;;8.21;44.22;93418.06;4213456;28;19919;-60
2023/03/15 06:30:51;;;;;;;;;;;;;;;8.24;43.78;93414.31;4200158;28;19924;-60
2023/03/15 06:32:53;;;;;;;;;;;;;;;8.29;43.92;93411.97;4209773;28;19927;-59
2023/03/15 06:34:55;;;;;;;;;;;;;;;8.34;44.42;93403.63;4203840;28;20401;-62
2023/03/15 06:36:56;;;;;;;;;;;;;;;8.43;44.20;93399.97;4199593;28;19942;-60
2023/03/15 06:38:58;;;;;;;;;;;;;;;8.54;44.09;93389.13;4210607;28;19946;-62
2023/03/15 06:41:00;;;;;;;;;;;;;;;8.67;43.48;93400.72;4210749;28;19981;-61
2023/03/15 06:43:04;;;;;;;;;;;;;;;8.74;43.63;93409.47;4222012;28;19923;-60
2023/03/15 06:45:07;;;;;;;;;;;;;;;8.85;42.86;93401.19;4220992;28;20397;-58
2023/03/15 06:47:09;;;;;;;;;;;;;;;8.77;42.87;93394.25;4229477;28;20435;-59
2023/03/15 06:49:11;;;;;;;;;;;;;;;8.76;42.70;93389.22;4231257;28;20491;-60
2023/03/15 06:51:12;;;;;;;;;;;;;;;8.70;42.41;93382.09;4228584;28;19976;-57
2023/03/15 06:53:14;;;;;;;;;;;;;;;8.58;42.49;93400.00;4209034;28;19973;-59
2023/03/15 06:55:17;;;;;;;;;;;;;;;8.71;42.35;93405.44;4198078;28;20401;-58
2023/03/15 06:57:18;;;;;;;;;;;;;;;8.81;42.46;93405.94;4212210;28;19973;-60
2023/03/15 06:59:20;;;;;;;;;;;;;;;8.62;41.82;93403.88;4205173;28;20512;-58
2023/03/15 07:01:21;;;;;;;;;;;;;;;8.64;41.06;93393.25;4202308;28;19924;-56
2023/03/15 07:03:23;;;;;;;;;;;;;;;8.69;41.77;93383.91;4211719;28;19920;-58
2023/03/15 07:05:25;;;;;;;;;;;;;;;8.88;41.67;93387.75;4199007;28;19920;-56
2023/03/15 07:07:26;;;;;;;;;;;;;;;8.95;41.23;93390.47;4209522;28;19920;-65
2023/03/15 07:09:27;;;;;;;;;;;;;;;9.12;40.99;93391.91;4204383;28;20015;-60
2023/03/15 07:11:29;;;;;;;;;;;;;;;9.09;41.22;93386.22;4230377;28;20446;-59
2023/03/15 07:13:30;;;;;;;;;;;;;;;8.97;41.21;93383.25;4230958;28;19926;-60
2023/03/15 07:15:32;;;;;;;;;;;;;;;8.91;41.51;93389.22;4230330;28;19923;-57
2023/03/15 07:17:33;;;;;;;;;;;;;;;8.68;41.54;93384.88;4230821;28;19931;-59
2023/03/15 07:19:35;;;;;;;;;;;;;;;8.79;41.54;93388.84;4230331;28;20323;-59
2023/03/15 07:21:46;;;;;;;;;;;;;;;8.91;41.05;93394.44;4228617;28;19927;-59
2023/03/15 07:23:48;;;;;;;;;;;;;;;9.10;40.54;93393.06;4224819;28;19927;-60
2023/03/15 07:25:49;;;;;;;;;;;;;;;9.33;40.65;93403.41;4197084;28;19920;-60
2023/03/15 07:27:55;;;;;;;;;;;;;;;9.59;39.90;93395.03;4196027;28;20377;-62
2023/03/15 07:29:57;;;;;;;;;;;;;;;9.73;40.03;93386.34;4213073;28;19988;-60
2023/03/15 07:32:00;;;;;;;;;;;;;;;9.84;39.79;93383.22;4204288;28;19923;-60
2023/03/15 07:34:01;;;;;;;;;;;;;;;9.86;39.30;93379.63;4215533;28;19962;-62
2023/03/15 07:36:04;;;;;;;;;;;;;;;9.25;39.72;93386.03;4195690;28;20395;-60
2023/03/15 07:38:05;;;;;;;;;;;;;;;9.38;39.83;93373.13;4211110;28;19974;-60
2023/03/15 07:40:11;;;;;;;;;;;;;;;9.30;40.31;93375.03;4206101;28;20329;-62
2023/03/15 07:42:12;;;;;;;;;;;;;;;9.46;40.40;93376.59;4200314;28;20302;-61
2023/03/15 07:44:14;;;;;;;;;;;;;;;9.16;40.83;93387.09;4211554;28;19972;-60
2023/03/15 07:46:16;;;;;;;;;;;;;;;9.45;40.18;93388.88;4211807;28;19972;-61
2023/03/15 07:48:17;;;;;;;;;;;;;;;9.81;39.70;93381.00;4229317;28;19919;-57
2023/03/15 07:50:19;;;;;;;;;;;;;;;9.74;39.74;93374.88;4227440;28;19959;-58
2023/03/15 07:52:20;;;;;;;;;;;;;;;9.52;39.82;93375.88;4217150;28;19974;-57
2023/03/15 07:54:22;;;;;;;;;;;;;;;9.51;40.07;93372.44;4202818;28;19974;-60
2023/03/15 07:56:23;;;;;;;;;;;;;;;9.21;40.24;93369.09;4211553;28;19920;-60
2023/03/15 07:58:25;;;;;;;;;;;;;;;8.66;41.92;93375.63;4210211;28;19966;-61
2023/03/15 08:00:27;;;;;;;;;;;;;;;8.78;41.68;93374.19;4206471;28;19920;-60
2023/03/15 08:02:28;;;;;;;;;;;;;;;8.77;41.75;93364.72;4198874;28;19970;-58
2023/03/15 08:04:31;;;;;;;;;;;;;;;8.73;41.93;93368.69;4201135;28;20055;-58
2023/03/15 08:06:34;;;;;;;;;;;;;;;8.75;42.23;93369.31;4203761;28;19924;-60
2023/03/15 08:08:35;;;;;;;;;;;;;;;8.74;42.16;93383.38;4212721;28;20003;-60
2023/03/15 08:10:37;;;;;;;;;;;;;;;8.69;42.65;93376.09;4194402;28;19966;-61
2023/03/15 08:12:40;;;;;;;;;;;;;;;8.91;42.06;93379.59;4202414;28;19920;-62
2023/03/15 08:14:42;;;;;;;;;;;;;;;9.09;41.41;93362.72;4230050;28;19938;-62
2023/03/15 08:16:43;;;;;;;;;;;;;;;9.22;41.32;93353.22;4229474;28;19945;-61
2023/03/15 08:18:45;;;;;;;;;;;;;;;9.30;40.91;93347.09;4229573;28;19973;-61
2023/03/15 08:20:47;;;;;;;;;;;;;;;9.35;41.05;93343.91;4202228;28;19981;-61
2023/03/15 08:22:50;;;;;;;;;;;;;;;9.38;40.92;93349.59;4210459;28;19920;-59
2023/03/15 08:24:52;;;;;;;;;;;;;;;9.34;41.62;93353.56;4229793;28;20391;-62
2023/03/15 08:26:53;;;;;;;;;;;;;;;9.53;40.74;93373.06;4228857;28;19964;-65
2023/03/15 08:28:55;;;;;;;;;;;;;;;9.55;40.82;93359.81;4229802;28;19920;-62
2023/03/15 08:30:56;;;;;;;;;;;;;;;9.21;40.43;93358.66;4228980;28;19927;-61
2023/03/15 08:32:58;;;;;;;;;;;;;;;9.30;41.07;93347.09;4229164;28;20541;-58
2023/03/15 08:34:59;;;;;;;;;;;;;;;9.51;40.46;93348.13;4227662;28;19923;-60
2023/03/15 08:37:01;;;;;;;;;;;;;;;9.71;40.75;93343.88;4227685;28;19920;-61
2023/03/15 08:39:04;;;;;;;;;;;;;;;9.74;40.22;93342.69;4207124;28;19925;-61
2023/03/15 08:41:05;;;;;;;;;;;;;;;9.68;40.73;93341.66;4205851;28;19920;-62
2023/03/15 08:43:07;;;;;;;;;;;;;;;9.68;40.46;93339.03;4207431;28;20412;-60
2023/03/15 08:45:09;;;;;;;;;;;;;;;9.71;40.59;93330.81;4205021;28;19924;-60
2023/03/15 08:47:10;;;;;;;;;;;;;;;9.98;40.79;93326.63;4216538;28;19920;-60
2023/03/15 08:49:12;;;;;;;;;;;;;;;10.29;40.21;93335.09;4218107;28;19937;-59
2023/03/15 08:51:13;;;;;;;;;;;;;;;10.54;39.96;93332.88;4211387;28;19923;-60
2023/03/15 08:53:15;;;;;;;;;;;;;;;10.82;39.71;93333.66;4206389;28;19966;-58
2023/03/15 08:55:16;;;;;;;;;;;;;;;10.55;39.22;93347.59;4220936;28;19920;-60
2023/03/15 08:57:18;;;;;;;;;;;;;;;10.24;39.74;93346.97;4203995;28;19920;-60
2023/03/15 08:59:19;;;;;;;;;;;;;;;10.15;40.12;93355.94;4194779;28;19970;-58
2023/03/15 09:01:32;;;;;;;;;;;;;;;9.87;41.31;93355.09;4211678;28;19928;-59
2023/03/15 09:03:33;;;;;;;;;;;;;;;10.07;40.75;93347.41;4206792;28;19920;-57
2023/03/15 09:05:35;;;;;;;;;;;;;;;9.88;41.34;93344.44;4204861;28;19988;-58
2023/03/15 09:07:37;;;;;;;;;;;;;;;9.83;41.55;93341.59;4215164;28;19920;-59
2023/03/15 09:09:39;;;;;;;;;;;;;;;9.82;41.48;93346.00;4232544;28;19928;-61
2023/03/15 09:11:41;;;;;;;;;;;;;;;9.87;41.61;93349.84;4232471;28;19920;-59
2023/03/15 09:13:42;;;;;;;;;;;;;;;9.99;41.24;93345.75;4232959;28;19973;-61
2023/03/15 09:15:44;;;;;;;;;;;;;;;10.02;41.33;93345.34;4230630;28;19926;-61
2023/03/15 09:17:45;;;;;;;;;;;;;;;9.98;41.55;93344.09;4231493;28;19919;-60
2023/03/15 09:19:47;;;;;;;;;;;;;;;10.15;41.59;93342.88;4213059;28;19946;-59
2023/03/15 09:21:48;;;;;;;;;;;;;;;10.28;41.31;93346.56;4218004;28;20106;-61
2023/03/15 09:23:50;;;;;;;;;;;;;;;10.31;41.11;93348.84;4230764;28;19962;-61
2023/03/15 09:25:51;;;;;;;;;;;;;;;10.28;40.81;93349.97;4232163;28;19971;-61
2023/03/15 09:27:53;;;;;;;;;;;;;;;10.46;41.36;93352.16;4231966;28;19924;-60
2023/03/15 09:29:54;;;;;;;;;;;;;;;10.48;41.12;93349.38;4218526;28;20294;-61
2023/03/15 09:31:56;;;;;;;;;;;;;;;10.62;40.96;93351.06;4231528;28;20386;-60
2023/03/15 09:33:58;;;;;;;;;;;;;;;10.78;40.82;93335.03;4231935;28;19923;-60
2023/03/15 09:35:59;;;;;;;;;;;;;;;10.97;40.30;93333.53;4230943;28;19919;-62
2023/03/15 09:38:02;;;;;;;;;;;;;;;11.07;40.24;93328.72;4225145;28;20448;-64
2023/03/15 09:40:06;;;;;;;;;;;;;;;11.29;40.01;93320.72;4197013;28;19947;-62
2023/03/15 09:42:33;;;;;;;;;;;;;;;11.58;39.64;93322.22;4212775;28;19920;-64
2023/03/15 09:44:50;;;;;;;;;;;;;;;11.82;38.88;93326.09;4166969;28;19924;-61
2023/03/15 09:46:54;;;;;;;;;;;;;;;11.76;38.57;93321.63;4198542;28;19997;-61
2023/03/15 09:49:01;;;;;;;;;;;;;;;11.72;39.04;93320.41;4202842;28;20365;-60
2023/03/15 09:51:07;;;;;;;;;;;;;;;11.75;38.97;93314.00;4188230;28;19932;-60
2023/03/15 09:53:09;;;;;;;;;;;;;;;11.66;38.87;93310.75;4193792;28;20297;-61
2023/03/15 09:55:24;;;;;;;;;;;;;;;11.56;38.93;93302.44;4224372;28;19920;-60
2023/03/15 09:57:30;;;;;;;;;;;;;;;11.40;39.50;93298.38;4213003;28;19919;-61
2023/03/15 09:59:33;;;;;;;;;;;;;;;11.42;39.35;93314.72;4199718;28;19920;-61
2023/03/15 10:01:36;;;;;;;;;;;;;;;11.40;39.50;93304.44;4186032;28;19924;-65
2023/03/15 10:03:41;;;;;;;;;;;;;;;11.33;39.71;93314.09;4211660;28;21906;-59
2023/03/15 10:05:44;;;;;;;;;;;;;;;11.25;39.68;93314.28;4228949;28;19923;-58
2023/03/15 10:07:45;;;;;;;;;;;;;;;11.20;39.77;93325.34;4193722;28;21334;-60
2023/03/15 10:09:46;;;;;;;;;;;;;;;11.25;39.78;93322.16;4204351;28;19958;-62
2023/03/15 10:12:07;;;;;;;;;;;;;;;11.17;39.81;93322.31;4213831;28;19985;-61
2023/03/15 10:14:29;;;;;;;;;;;;;;;10.78;40.01;93318.53;4212425;28;19920;-60
2023/03/15 10:16:40;;;;;;;;;;;;;;;10.51;40.97;93320.97;4180130;28;20513;-59
2023/03/15 10:18:46;;;;;;;;;;;;;;;10.68;40.89;93318.06;4211518;28;19931;-59
2023/03/15 10:20:52;;;;;;;;;;;;;;;10.82;40.89;93315.31;4196108;28;19959;-59
2023/03/15 10:23:04;;;;;;;;;;;;;;;10.96;40.25;93316.16;4187629;28;19933;-61
2023/03/15 10:25:22;;;;;;;;;;;;;;;10.94;40.40;93315.56;4198115;28;19924;-62
2023/03/15 10:27:35;;;;;;;;;;;;;;;11.15;40.40;93317.25;4199146;28;19928;-61
2023/03/15 10:29:37;;;;;;;;;;;;;;;11.35;40.10;93313.88;4198684;28;19927;-62
2023/03/15 10:31:38;;;;;;;;;;;;;;;11.44;39.43;93310.91;4180625;28;19964;-60
2023/03/15 10:33:45;;;;;;;;;;;;;;;11.44;39.63;93297.78;4186307;28;20408;-61
2023/03/15 10:35:46;;;;;;;;;;;;;;;11.51;39.31;93297.81;4213895;28;19946;-62
2023/03/15 10:37:48;;;;;;;;;;;;;;;11.45;39.59;93304.63;4207437;28;19920;-59
2023/03/15 10:39:52;;;;;;;;;;;;;;;11.48;39.99;93306.06;4188741;28;20011;-62
2023/03/15 10:41:53;;;;;;;;;;;;;;;11.32;39.20;93311.69;4207974;28;19936;-62
2023/03/15 10:43:57;;;;;;;;;;;;;;;11.24;39.63;93323.13;4219779;28;19943;-60
2023/03/15 10:46:02;;;;;;;;;;;;;;;11.23;39.73;93316.28;4207950;28;19923;-62